Time;durP1;ratioP1;P1;durP2;ratioP2;P2;SDS_P1;SDS_P2;PMS_P1;PMS_P2;Temp;Humidity;BMP_temperature;BMP_pressure;BME280_temperature;BME280_humidity;BME280_pressure;Samples;Min_cycle;Max_cycle;Signal;HPM_P1;HPM_P2
2021/10/05 00:00:43;;;;;;;37.43;22.00;;;;;;;8.18;100.00;101419.20;1747152;82;21050;-79
2021/10/05 00:03:10;;;;;;;27.93;16.60;;;;;;;8.14;100.00;101419.94;1747501;82;21042;-81
2021/10/05 00:05:36;;;;;;;31.20;16.33;;;;;;;8.16;100.00;101423.83;1747677;82;21495;-81
2021/10/05 00:08:04;;;;;;;42.30;24.10;;;;;;;8.15;100.00;101420.28;1747282;82;21074;-80
2021/10/05 00:10:31;;;;;;;25.93;15.20;;;;;;;8.14;100.00;101421.75;1747422;82;21050;-81
2021/10/05 00:12:58;;;;;;;39.33;22.10;;;;;;;8.12;100.00;101416.48;1747355;82;21018;-81
2021/10/05 00:15:24;;;;;;;30.53;17.40;;;;;;;8.11;100.00;101416.13;1747088;82;21026;-81
2021/10/05 00:17:51;;;;;;;63.47;36.97;;;;;;;8.12;100.00;101419.67;1747270;82;21062;-80
2021/10/05 00:20:17;;;;;;;40.00;23.23;;;;;;;8.10;100.00;101422.48;1747593;82;21038;-80
2021/10/05 00:22:44;;;;;;;49.93;27.20;;;;;;;8.08;100.00;101423.10;1747616;82;21515;-81
2021/10/05 00:25:12;;;;;;;30.30;16.90;;;;;;;8.07;100.00;101423.22;1747531;82;21026;-81
2021/10/05 00:27:39;;;;;;;31.83;18.00;;;;;;;8.06;100.00;101423.72;1747320;82;21496;-81
2021/10/05 00:30:06;;;;;;;33.37;19.57;;;;;;;8.07;100.00;101423.22;1747161;82;21073;-81
2021/10/05 00:32:35;;;;;;;42.73;25.40;;;;;;;8.06;100.00;101423.72;1747340;82;21043;-81
2021/10/05 00:35:01;;;;;;;30.40;18.07;;;;;;;8.06;100.00;101430.95;1747653;82;21018;-80
2021/10/05 00:37:29;;;;;;;25.73;15.60;;;;;;;8.06;100.00;101431.80;1747272;82;20990;-80
2021/10/05 00:39:55;;;;;;;21.37;12.33;;;;;;;8.06;100.00;101424.22;1737693;82;20997;-82
2021/10/05 00:42:22;;;;;;;30.60;17.90;;;;;;;8.07;100.00;101426.76;1734691;82;21041;-80
2021/10/05 00:44:49;;;;;;;32.30;18.70;;;;;;;8.06;100.00;101423.72;1711559;82;20994;-80
2021/10/05 00:47:15;;;;;;;41.30;23.10;;;;;;;8.07;100.00;101429.45;1746996;82;21002;-80
2021/10/05 00:49:44;;;;;;;177.73;83.90;;;;;;;8.07;100.00;101428.61;1753247;82;21070;-80
2021/10/05 00:52:12;;;;;;;103.23;56.13;;;;;;;8.08;100.00;101430.33;1755395;82;21013;-81
2021/10/05 00:54:39;;;;;;;83.73;44.30;;;;;;;8.09;100.00;101442.34;1755387;82;21025;-81
2021/10/05 00:57:07;;;;;;;118.30;51.47;;;;;;;8.11;100.00;101442.19;1755090;82;21017;-81
2021/10/05 00:59:34;;;;;;;78.60;40.47;;;;;;;8.12;100.00;101442.58;1755034;82;21022;-80
2021/10/05 01:02:02;;;;;;;51.57;27.80;;;;;;;8.11;100.00;101444.89;1755715;82;21017;-80
2021/10/05 01:04:29;;;;;;;51.60;28.33;;;;;;;8.12;100.00;101449.31;1755872;82;21014;-79
2021/10/05 01:07:01;;;;;;;38.43;21.13;;;;;;;8.11;100.00;101440.37;1755247;82;21100;-80
2021/10/05 01:09:28;;;;;;;50.20;30.43;;;;;;;8.10;100.00;101446.73;1755245;82;21006;-81
2021/10/05 01:11:57;;;;;;;70.43;31.57;;;;;;;8.09;100.00;101453.58;1755553;82;21040;-80
2021/10/05 01:14:23;;;;;;;127.40;55.70;;;;;;;8.07;100.00;101451.50;1755690;81;20998;-80
2021/10/05 01:16:52;;;;;;;74.37;37.67;;;;;;;8.06;100.00;101451.16;1755597;82;21013;-81
2021/10/05 01:19:18;;;;;;;100.03;50.70;;;;;;;8.05;100.00;101448.92;1755813;82;21005;-80
2021/10/05 01:21:45;;;;;;;89.73;44.03;;;;;;;8.07;100.00;101449.66;1755846;82;20999;-80
2021/10/05 01:24:17;;;;;;;80.83;41.97;;;;;;;8.07;100.00;101446.97;1755283;82;20978;-80
2021/10/05 01:26:43;;;;;;;104.53;49.97;;;;;;;8.07;100.00;101449.66;1755497;82;21030;-81
2021/10/05 01:29:14;;;;;;;69.33;35.53;;;;;;;8.08;100.00;101449.19;1755475;82;21009;-81
2021/10/05 01:31:44;;;;;;;51.77;27.50;;;;;;;8.08;100.00;101448.69;1755402;82;21508;-82
2021/10/05 01:34:11;;;;;;;50.70;25.87;;;;;;;8.10;100.00;101445.38;1755373;81;21041;-81
2021/10/05 01:36:38;;;;;;;41.57;22.40;;;;;;;8.12;100.00;101452.00;1754841;82;21093;-80
2021/10/05 01:39:21;;;;;;;32.87;18.23;;;;;;;8.11;100.00;101453.84;1745781;82;21049;-83
2021/10/05 01:41:48;;;;;;;32.93;19.27;;;;;;;8.09;100.00;101460.31;1671703;86;21129;-79
2021/10/05 01:44:15;;;;;;;38.50;25.67;;;;;;;8.07;100.00;101456.39;1672035;86;21010;-80
2021/10/05 01:46:41;;;;;;;50.40;30.23;;;;;;;8.07;100.00;101460.44;1646665;86;21066;-82
2021/10/05 01:49:10;;;;;;;37.23;21.50;;;;;;;8.09;100.00;101464.36;1634451;87;21038;-81
2021/10/05 01:51:36;;;;;;;34.10;19.83;;;;;;;8.09;100.00;101460.31;1627560;88;21130;-83
2021/10/05 01:54:03;;;;;;;30.10;17.77;;;;;;;8.07;100.00;101460.44;1627944;88;21572;-82
2021/10/05 01:56:31;;;;;;;29.43;17.50;;;;;;;8.06;100.00;101466.82;1627736;88;21035;-81
2021/10/05 01:58:58;;;;;;;34.23;20.40;;;;;;;8.04;100.00;101470.13;1627606;88;21077;-81
2021/10/05 02:01:24;;;;;;;31.53;19.97;;;;;;;8.05;100.00;101465.09;1627801;88;21071;-82
2021/10/05 02:03:51;;;;;;;36.30;24.30;;;;;;;8.05;100.00;101473.17;1627770;88;21093;-81
2021/10/05 02:06:18;;;;;;;37.00;23.80;;;;;;;8.05;100.00;101472.32;1627912;88;21117;-78
2021/10/05 02:08:45;;;;;;;29.40;20.60;;;;;;;8.04;100.00;101475.98;1627962;88;21082;-80
2021/10/05 02:11:11;;;;;;;29.60;20.53;;;;;;;8.01;100.00;101475.75;1628038;88;21149;-80
2021/10/05 02:13:40;;;;;;;29.80;21.63;;;;;;;8.01;100.00;101481.13;1627765;88;21101;-80
2021/10/05 02:16:07;;;;;;;36.67;27.20;;;;;;;7.99;100.00;101480.40;1628187;88;21134;-80
2021/10/05 02:18:33;;;;;;;36.80;26.27;;;;;;;7.97;100.00;101479.17;1627533;88;21026;-80
2021/10/05 02:21:00;;;;;;;36.93;25.87;;;;;;;7.95;100.00;101483.82;1627642;88;21042;-80
2021/10/05 02:26:11;;;;;;;30.00;20.20;;;;;;;7.99;100.00;101483.94;1627844;87;21058;-79
2021/10/05 02:28:38;;;;;;;28.53;16.40;;;;;;;8.04;100.00;101488.10;1628035;88;21066;-79
2021/10/05 02:31:05;;;;;;;21.73;12.10;;;;;;;8.07;100.00;101491.91;1638809;84;21094;-80
2021/10/05 02:33:32;;;;;;;25.13;13.77;;;;;;;8.09;100.00;101492.18;1667219;86;21045;-81
2021/10/05 02:35:58;;;;;;;28.03;13.93;;;;;;;8.12;100.00;101489.72;1667639;86;21040;-80
2021/10/05 02:38:25;;;;;;;24.33;13.80;;;;;;;8.14;100.00;101491.34;1718789;83;20971;-79
2021/10/05 02:40:51;;;;;;;46.73;22.20;;;;;;;8.18;100.00;101493.30;1764644;81;20985;-80
2021/10/05 02:43:18;;;;;;;69.80;35.97;;;;;;;8.20;100.00;101492.69;1764523;80;21029;-79
2021/10/05 02:45:44;;;;;;;28.23;16.10;;;;;;;8.22;100.00;101495.27;1760541;81;20982;-83
2021/10/05 02:48:11;;;;;;;52.70;27.10;;;;;;;8.22;100.00;101500.16;1753488;82;21081;-81
2021/10/05 02:50:37;;;;;;;30.67;17.33;;;;;;;8.22;100.00;101496.61;1737443;82;21070;-82
2021/10/05 02:53:04;;;;;;;31.97;17.13;;;;;;;8.19;100.00;101496.34;1736788;83;20975;-81
2021/10/05 02:55:31;;;;;;;34.83;17.97;;;;;;;8.15;100.00;101493.53;1736918;83;21047;-79
2021/10/05 02:57:58;;;;;;;29.27;16.97;;;;;;;8.15;100.00;101497.58;1736894;82;21066;-80
2021/10/05 03:00:24;;;;;;;25.63;13.10;;;;;;;8.15;100.00;101500.27;1736927;83;20987;-79
2021/10/05 03:02:51;;;;;;;34.97;15.87;;;;;;;8.12;100.00;101501.34;1736976;83;21070;-80
2021/10/05 03:05:18;;;;;;;40.47;18.87;;;;;;;8.11;100.00;101502.34;1737011;83;21058;-82
2021/10/05 03:07:45;;;;;;;59.47;32.03;;;;;;;8.11;100.00;101502.34;1736929;82;21019;-81
2021/10/05 03:10:12;;;;;;;41.20;22.20;;;;;;;8.13;100.00;101496.84;1736955;83;21051;-82
2021/10/05 03:12:39;;;;;;;35.23;19.57;;;;;;;8.10;100.00;101497.07;1736777;83;21050;-80
2021/10/05 03:15:06;;;;;;;54.77;20.87;;;;;;;8.09;100.00;101495.34;1737066;82;21062;-81
2021/10/05 03:17:35;;;;;;;24.97;13.03;;;;;;;8.10;100.00;101503.81;1687422;85;21067;-81
2021/10/05 03:20:02;;;;;;;22.93;12.17;;;;;;;8.13;100.00;101505.77;1687511;85;21039;-82
2021/10/05 03:22:29;;;;;;;54.97;16.80;;;;;;;8.13;100.00;101508.47;1687285;85;20999;-81
2021/10/05 03:24:56;;;;;;;28.60;13.17;;;;;;;8.11;100.00;101499.66;1687268;85;21034;-81
2021/10/05 03:27:22;;;;;;;18.70;10.20;;;;;;;8.13;100.00;101510.31;1686923;85;21011;-83
2021/10/05 03:29:49;;;;;;;370.43;119.03;;;;;;;8.16;100.00;101500.62;1665407;85;21078;-79
2021/10/05 03:32:15;;;;;;;84.07;34.97;;;;;;;8.17;100.00;101495.61;1665670;85;21037;-83
2021/10/05 03:34:42;;;;;;;143.70;60.43;;;;;;;8.19;100.00;101503.08;1686990;85;21038;-83
2021/10/05 03:37:09;;;;;;;387.80;147.40;;;;;;;8.18;100.00;101504.08;1686955;85;21503;-82
2021/10/05 03:39:36;;;;;;;75.67;33.97;;;;;;;8.17;100.00;101504.55;1687168;85;21038;-80
2021/10/05 03:42:03;;;;;;;98.30;47.90;;;;;;;8.17;100.00;101510.43;1687328;85;20999;-81
2021/10/05 03:44:30;;;;;;;153.00;68.53;;;;;;;8.18;100.00;101510.81;1687505;85;21048;-82
2021/10/05 03:46:57;;;;;;;95.77;44.57;;;;;;;8.17;100.00;101516.67;1687622;85;21055;-81
2021/10/05 03:49:24;;;;;;;124.83;57.03;;;;;;;8.16;100.00;101514.09;1722392;81;21064;-81
2021/10/05 03:51:51;;;;;;;67.90;27.93;;;;;;;8.14;100.00;101527.71;1707975;84;21083;-82
2021/10/05 03:54:17;;;;;;;36.63;18.33;;;;;;;8.11;100.00;101527.06;1708060;84;21001;-82
2021/10/05 03:56:44;;;;;;;41.70;20.53;;;;;;;8.09;100.00;101531.71;1707832;84;21036;-82
2021/10/05 03:59:15;;;;;;;57.87;27.07;;;;;;;8.07;100.00;101528.28;1707987;83;21005;-80
2021/10/05 04:01:39;;;;;;;33.97;19.47;;;;;;;8.04;100.00;101525.35;1678946;84;21105;-83
2021/10/05 04:04:06;;;;;;;55.93;30.20;;;;;;;8.02;100.00;101535.86;1700645;84;21518;-81
2021/10/05 04:06:32;;;;;;;62.47;34.30;;;;;;;8.01;100.00;101529.62;1700399;84;21057;-80
2021/10/05 04:08:59;;;;;;;177.83;65.53;;;;;;;8.01;100.00;101530.97;1700703;84;20997;-80
2021/10/05 04:11:25;;;;;;;98.03;41.27;;;;;;;8.01;100.00;101541.74;1700665;83;21028;-79
2021/10/05 04:13:51;;;;;;;131.83;59.43;;;;;;;8.02;100.00;101535.39;1700601;84;21053;-79
2021/10/05 04:16:18;;;;;;;95.33;50.80;;;;;;;8.02;100.00;101554.72;1700658;84;21009;-80
2021/10/05 04:18:45;;;;;;;116.03;55.40;;;;;;;8.01;100.00;101543.09;1700520;84;20993;-83
2021/10/05 04:21:11;;;;;;;288.73;119.63;;;;;;;8.01;100.00;101553.86;1700348;84;21005;-82
2021/10/05 04:23:38;;;;;;;102.70;46.53;;;;;;;7.98;100.00;101553.62;1700690;84;21108;-79
2021/10/05 04:26:05;;;;;;;77.50;35.47;;;;;;;7.97;100.00;101557.28;1700213;83;21076;-80
2021/10/05 04:28:33;;;;;;;62.10;32.77;;;;;;;7.95;100.00;101551.16;1700179;83;21058;-82
2021/10/05 04:30:59;;;;;;;103.90;52.17;;;;;;;7.94;100.00;101554.81;1699970;84;21029;-81
2021/10/05 04:33:26;;;;;;;70.53;35.57;;;;;;;7.93;100.00;101553.11;1700432;84;21071;-80
2021/10/05 04:35:52;;;;;;;35.77;18.60;;;;;;;7.91;100.00;101554.19;1700392;83;21049;-81
2021/10/05 04:38:19;;;;;;;46.87;23.87;;;;;;;7.90;100.00;101560.56;1701414;84;21468;-80
2021/10/05 04:40:45;;;;;;;45.83;22.87;;;;;;;7.90;100.00;101556.53;1707305;84;21559;-81
2021/10/05 04:43:12;;;;;;;225.13;118.73;;;;;;;7.92;100.00;101564.00;1707535;84;20998;-81
2021/10/05 04:45:39;;;;;;;189.40;94.33;;;;;;;7.92;100.00;101562.66;1707517;84;21081;-79
2021/10/05 04:48:07;;;;;;;127.37;65.87;;;;;;;7.92;100.00;101563.50;1707758;84;21444;-78
2021/10/05 04:50:34;;;;;;;123.90;63.40;;;;;;;7.95;100.00;101567.78;1723001;83;21061;-81
2021/10/05 04:53:01;;;;;;;141.13;66.37;;;;;;;7.98;100.00;101562.17;1682087;85;21038;-80
2021/10/05 04:55:27;;;;;;;259.70;114.27;;;;;;;8.03;100.00;101555.09;1717178;84;21030;-80
2021/10/05 04:57:55;;;;;;;202.43;78.03;;;;;;;8.04;100.00;101557.67;1717123;84;21078;-80
2021/10/05 05:00:21;;;;;;;445.03;154.77;;;;;;;8.08;100.00;101559.15;1717359;84;21078;-80
2021/10/05 05:02:48;;;;;;;319.30;130.43;;;;;;;8.13;100.00;101564.20;1717919;84;21520;-80
2021/10/05 05:05:15;;;;;;;627.33;255.57;;;;;;;8.18;100.00;101557.47;1732538;83;21068;-82
2021/10/05 05:07:41;;;;;;;333.57;118.00;;;;;;;8.23;100.00;101562.48;1732701;83;21483;-82
2021/10/05 05:10:09;;;;;;;490.80;164.87;;;;;;;8.26;100.00;101556.02;1732524;83;21554;-81
2021/10/05 05:12:36;;;;;;;531.17;199.63;;;;;;;8.29;100.00;101563.38;1732320;83;21089;-81
2021/10/05 05:15:05;;;;;;;428.20;143.90;;;;;;;8.34;100.00;101571.97;1732314;83;21081;-80
2021/10/05 05:17:33;;;;;;;411.87;160.17;;;;;;;8.39;100.00;101562.16;1732057;83;21519;-79
2021/10/05 05:20:00;;;;;;;228.50;96.80;;;;;;;8.44;100.00;101569.92;1732241;83;21096;-80
2021/10/05 05:22:26;;;;;;;102.20;44.43;;;;;;;8.49;100.00;101566.39;1732513;83;21502;-82
2021/10/05 05:24:52;;;;;;;167.20;71.47;;;;;;;8.53;100.00;101571.43;1732203;83;21064;-79
2021/10/05 05:27:20;;;;;;;124.70;53.30;;;;;;;8.60;100.00;101570.44;1732972;83;21033;-80
2021/10/05 05:29:47;;;;;;;101.27;48.90;;;;;;;8.66;100.00;101575.86;1701913;83;21491;-80
2021/10/05 05:32:14;;;;;;;277.17;120.90;;;;;;;8.70;100.00;101567.88;1732325;83;21025;-79
2021/10/05 05:34:41;;;;;;;118.47;58.53;;;;;;;8.75;100.00;101573.77;1732774;83;21002;-79
2021/10/05 05:37:08;;;;;;;93.47;45.77;;;;;;;8.81;100.00;101576.47;1732372;83;21006;-83
2021/10/05 05:39:39;;;;;;;101.17;48.20;;;;;;;8.87;100.00;101573.27;1735815;82;21535;-81
2021/10/05 05:42:04;;;;;;;64.60;33.33;;;;;;;8.92;100.00;101573.29;1728149;81;21002;-82
2021/10/05 05:44:31;;;;;;;87.77;43.73;;;;;;;8.97;100.00;101576.10;1727872;83;21053;-81
2021/10/05 05:46:57;;;;;;;42.40;18.87;;;;;;;9.01;100.00;101570.81;1728027;83;21056;-82
2021/10/05 05:49:24;;;;;;;101.37;47.23;;;;;;;9.06;100.00;101575.35;1724535;82;21539;-83
2021/10/05 05:51:51;;;;;;;43.43;22.60;;;;;;;9.13;100.00;101569.33;1704163;84;21001;-79
2021/10/05 05:54:18;;;;;;;47.17;17.97;;;;;;;9.22;100.00;101564.17;1664801;86;21019;-81
2021/10/05 05:56:45;;;;;;;24.80;13.63;;;;;;;9.30;100.00;101569.31;1704440;84;21436;-80
2021/10/05 05:59:11;;;;;;;83.00;38.17;;;;;;;9.41;100.00;101564.89;1662684;84;21021;-81
2021/10/05 06:01:40;;;;;;;40.13;20.87;;;;;;;9.51;100.00;101568.55;1716874;84;21069;-80
2021/10/05 06:04:07;;;;;;;37.87;19.00;;;;;;;9.62;100.00;101566.30;1709468;84;21024;-79
2021/10/05 06:06:33;;;;;;;72.80;37.93;;;;;;;9.75;100.00;101560.73;1684529;85;21035;-81
2021/10/05 06:09:01;;;;;;;51.85;28.52;;;;;;;9.85;100.00;101554.42;1742831;82;21060;-82
2021/10/05 06:11:31;;;;;;;41.18;22.07;;;;;;;9.93;100.00;101552.41;1742335;82;21071;-78
2021/10/05 06:13:57;;;;;;;39.75;21.95;;;;;;;10.06;100.00;101555.80;1742253;82;21044;-79
2021/10/05 06:16:23;;;;;;;45.88;24.52;;;;;;;10.15;100.00;101556.86;1742288;82;20988;-81
2021/10/05 06:18:50;;;;;;;49.08;25.97;;;;;;;10.28;100.00;101556.66;1742483;82;21031;-79
2021/10/05 06:21:16;;;;;;;73.28;38.83;;;;;;;10.45;100.00;101553.89;1742215;82;21094;-81
2021/10/05 06:23:44;;;;;;;83.87;43.95;;;;;;;10.65;100.00;101561.61;1741952;82;21076;-79
2021/10/05 06:26:11;;;;;;;44.73;24.87;;;;;;;10.85;100.00;101556.29;1727927;81;21054;-77
2021/10/05 06:28:39;;;;;;;47.40;24.23;;;;;;;10.96;100.00;101558.41;1723689;81;21011;-73
2021/10/05 06:31:08;;;;;;;27.35;13.28;;;;;;;11.09;100.00;101564.09;1724383;83;20994;-80
2021/10/05 06:33:36;;;;;;;52.95;30.52;;;;;;;11.21;100.00;101556.22;1733121;83;21060;-82
2021/10/05 06:36:04;;;;;;;94.72;46.45;;;;;;;11.34;100.00;101560.87;1734202;83;21030;-81
2021/10/05 06:38:30;;;;;;;75.15;39.10;;;;;;;11.52;100.00;101555.63;1728407;83;21018;-81
2021/10/05 06:40:58;;;;;;;76.12;36.93;;;;;;;11.74;100.00;101568.07;1726371;82;21452;-78
2021/10/05 06:43:24;;;;;;;67.47;33.98;;;;;;;11.95;100.00;101558.96;1711305;82;21014;-79
2021/10/05 06:45:51;;;;;;;48.20;19.65;;;;;;;12.10;100.00;101561.60;1731318;81;21472;-79
2021/10/05 06:48:18;;;;;;;99.13;40.40;;;;;;;12.27;100.00;101559.15;1747264;80;20992;-82
2021/10/05 06:50:45;;;;;;;33.67;14.65;;;;;;;12.45;100.00;101541.66;1739307;80;21035;-79
2021/10/05 06:53:21;;;;;;;118.13;46.85;;;;;;;12.63;100.00;101544.45;1739035;80;20999;-79
2021/10/05 06:55:50;;;;;;;105.47;55.92;;;;;;;12.84;100.00;101544.23;1705647;82;21484;-78
2021/10/05 06:58:17;;;;;;;303.15;104.72;;;;;;;13.02;100.00;101544.30;1729556;81;21471;-75
2021/10/05 07:00:44;;;;;;;49.80;22.67;;;;;;;13.14;100.00;101544.45;1737705;80;21506;-73
2021/10/05 07:03:11;;;;;;;104.43;48.98;;;;;;;13.28;100.00;101543.94;1731971;81;21030;-77
2021/10/05 07:05:38;;;;;;;32.13;15.68;;;;;;;13.40;100.00;101547.34;1746969;80;21089;-74
2021/10/05 07:08:07;;;;;;;73.42;22.55;;;;;;;13.54;100.00;101543.73;1746230;80;21571;-74
2021/10/05 07:10:36;;;;;;;35.98;12.55;;;;;;;13.73;100.00;101546.81;1650796;85;21063;-73
2021/10/05 07:13:04;;;;;;;109.12;31.20;;;;;;;13.96;100.00;101548.05;1655960;84;21083;-75
2021/10/05 07:15:31;;;;;;;89.85;24.98;;;;;;;14.23;100.00;101546.22;1656353;85;21120;-74
2021/10/05 07:17:58;;;;;;;78.60;23.25;;;;;;;14.51;100.00;101555.61;1666654;84;21033;-73
2021/10/05 07:20:27;;;;;;;25.20;10.10;;;;;;;14.73;100.00;101541.98;1688548;84;21070;-73
2021/10/05 07:22:53;;;;;;;24.18;9.38;;;;;;;14.96;100.00;101540.41;1683048;84;21038;-74
2021/10/05 07:25:21;;;;;;;42.25;11.60;;;;;;;15.09;100.00;101548.13;1690348;85;20979;-73
2021/10/05 07:27:52;;;;;;;26.75;9.93;;;;;;;15.17;100.00;101551.38;1705116;83;21042;-74
2021/10/05 07:30:24;;;;;;;55.33;13.53;;;;;;;15.23;100.00;101547.13;1675864;84;21100;-79
2021/10/05 07:32:56;;;;;;;55.12;15.35;;;;;;;15.36;100.00;101542.08;1674708;84;21019;-76
2021/10/05 07:35:23;;;;;;;69.03;15.20;;;;;;;15.68;100.00;101541.81;1646202;86;21067;-76
2021/10/05 07:37:50;;;;;;;38.17;11.25;;;;;;;15.99;100.00;101543.42;1647507;86;21513;-74
2021/10/05 07:40:20;;;;;;;47.20;12.80;;;;;;;16.16;100.00;101544.25;1640028;86;21034;-74
2021/10/05 07:42:46;;;;;;;22.45;8.25;;;;;;;16.36;100.00;101551.59;1639750;86;21635;-76
2021/10/05 07:45:13;;;;;;;25.90;8.48;;;;;;;16.57;100.00;101548.81;1639250;86;21066;-75
2021/10/05 07:47:40;;;;;;;61.28;12.05;;;;;;;16.65;100.00;101553.75;1640580;86;21018;-74
2021/10/05 07:50:07;;;;;;;21.23;6.53;;;;;;;16.68;100.00;101543.01;1663799;85;21089;-74
2021/10/05 07:52:36;;;;;;;69.60;15.72;;;;;;;16.69;100.00;101540.59;1662713;86;21117;-75
2021/10/05 07:55:04;;;;;;;23.22;6.92;;;;;;;16.68;100.00;101540.27;1640425;86;21015;-75
2021/10/05 07:57:32;;;;;;;25.68;10.18;;;;;;;16.73;100.00;101543.83;1646299;86;21102;-78
2021/10/05 07:59:58;;;;;;;22.37;8.30;;;;;;;16.82;100.00;101547.73;1646436;86;21050;-78
2021/10/05 08:02:25;;;;;;;51.10;15.68;;;;;;;16.95;100.00;101549.09;1642113;86;21087;-74
2021/10/05 08:04:53;;;;;;;92.67;42.85;;;;;;;17.13;100.00;101546.12;1649757;86;21017;-76
2021/10/05 08:07:20;;;;;;;60.10;20.35;;;;;;;17.34;100.00;101543.62;1676490;82;21007;-79
2021/10/05 08:09:46;;;;;;;37.00;10.93;;;;;;;17.55;99.09;101544.88;1696989;83;21102;-75
2021/10/05 08:12:13;;;;;;;43.28;11.00;;;;;;;17.73;97.90;101540.48;1698140;83;21019;-80
2021/10/05 08:14:40;;;;;;;47.90;17.25;;;;;;;17.91;91.28;101536.95;1708093;82;21120;-77
2021/10/05 08:17:07;;;;;;;61.98;17.87;;;;;;;18.06;92.79;101546.59;1708017;82;21023;-76
2021/10/05 08:19:34;;;;;;;24.65;8.53;;;;;;;18.24;85.56;101534.44;1704510;83;21007;-73
2021/10/05 08:22:05;;;;;;;59.18;14.87;;;;;;;18.39;83.88;101536.70;1717336;83;21110;-74
2021/10/05 08:24:32;;;;;;;30.57;9.78;;;;;;;18.58;83.29;101525.73;1671938;83;21505;-77
2021/10/05 08:26:59;;;;;;;37.53;10.85;;;;;;;18.45;70.48;101532.36;1716726;83;21073;-73
2021/10/05 08:29:26;;;;;;;62.98;17.62;;;;;;;18.27;73.00;101536.28;1722715;83;21078;-74
2021/10/05 08:31:53;;;;;;;202.18;85.97;;;;;;;18.29;76.25;101533.37;1706511;83;21042;-74
2021/10/05 08:34:20;;;;;;;71.47;12.13;;;;;;;18.34;69.50;101549.59;1727883;83;21065;-75
2021/10/05 08:36:46;;;;;;;24.30;5.85;;;;;;;18.24;61.90;101532.58;1712588;83;21056;-73
2021/10/05 08:39:15;;;;;;;30.32;6.75;;;;;;;18.19;67.14;101530.38;1750769;80;21481;-74
2021/10/05 08:41:45;;;;;;;22.85;6.45;;;;;;;18.37;69.76;101532.77;1761694;80;20955;-74
2021/10/05 08:44:12;;;;;;;42.55;7.60;;;;;;;18.55;67.79;101540.63;1760714;80;20972;-74
2021/10/05 08:46:39;;;;;;;40.15;8.65;;;;;;;18.63;63.83;101528.76;1762482;80;21026;-72
2021/10/05 08:49:06;;;;;;;113.00;48.78;;;;;;;18.53;57.27;101539.97;1721265;81;21148;-73
2021/10/05 08:51:34;;;;;;;58.28;15.13;;;;;;;18.33;59.84;101532.83;1764307;79;21030;-73
2021/10/05 08:54:01;;;;;;;16.25;5.12;;;;;;;18.21;62.17;101528.83;1777402;80;21476;-73
2021/10/05 08:56:28;;;;;;;15.98;4.78;;;;;;;18.25;62.35;101530.68;1774840;80;21101;-77
2021/10/05 08:58:55;;;;;;;33.15;8.50;;;;;;;18.30;61.96;101518.66;1776481;80;20978;-74
2021/10/05 09:01:22;;;;;;;44.95;10.08;;;;;;;18.38;62.97;101525.43;1750374;80;21099;-77
2021/10/05 09:03:52;;;;;;;45.03;10.03;;;;;;;18.44;61.16;101524.67;1750975;80;21026;-78
2021/10/05 09:06:21;;;;;;;58.45;12.23;;;;;;;18.52;60.69;101519.12;1726180;83;20950;-77
2021/10/05 09:08:50;;;;;;;83.30;15.38;;;;;;;18.66;58.71;101520.17;1704998;83;21012;-77
2021/10/05 09:11:26;;;;;;;22.55;5.30;;;;;;;18.78;56.73;101534.23;1713672;83;21024;-73
2021/10/05 09:13:56;;;;;;;54.53;14.83;;;;;;;18.90;54.88;101527.80;1644782;86;21151;-73
2021/10/05 09:16:27;;;;;;;72.75;21.73;;;;;;;18.97;49.62;101535.05;1626515;84;21081;-73
2021/10/05 09:19:03;;;;;;;98.55;20.82;;;;;;;18.70;48.84;101536.55;1610014;89;21054;-74
2021/10/05 09:21:33;;;;;;;30.00;7.45;;;;;;;18.55;50.11;101536.52;1626472;88;22358;-74
2021/10/05 09:24:11;;;;;;;31.15;6.72;;;;;;;18.57;51.49;101534.47;1626211;88;21069;-73
2021/10/05 09:26:58;;;;;;;24.45;5.65;;;;;;;18.56;52.36;101535.50;1655921;87;21061;-75
2021/10/05 09:29:33;;;;;;;58.17;11.63;;;;;;;18.58;50.30;101529.84;1586896;89;21089;-74
2021/10/05 09:32:07;;;;;;;60.85;20.88;;;;;;;18.64;51.11;101534.55;1581193;89;21099;-73
2021/10/05 09:34:50;;;;;;;82.92;26.10;;;;;;;18.72;49.71;101526.78;1581590;89;21054;-75
2021/10/05 09:37:25;;;;;;;55.33;16.65;;;;;;;18.81;52.12;101535.23;1514248;93;21219;-76
2021/10/05 09:40:09;;;;;;;120.75;37.48;;;;;;;18.99;49.63;101523.06;1515625;93;21112;-74
2021/10/05 09:42:43;;;;;;;134.25;48.48;;;;;;;19.10;48.28;101528.89;1540208;93;21129;-73
2021/10/05 09:45:17;;;;;;;87.08;23.10;;;;;;;19.02;47.02;101525.44;1547199;91;21067;-74
2021/10/05 09:47:50;;;;;;;78.45;27.02;;;;;;;19.01;47.94;101519.61;1544442;93;21124;-74
2021/10/05 09:50:29;;;;;;;74.75;13.48;;;;;;;18.97;47.25;101535.05;1532620;93;21129;-74
2021/10/05 09:52:58;;;;;;;46.33;11.12;;;;;;;18.84;47.48;101518.95;1515025;93;21147;-77
2021/10/05 09:55:27;;;;;;;101.92;27.20;;;;;;;18.75;48.96;101527.75;1517936;93;21620;-75
2021/10/05 09:57:54;;;;;;;69.92;15.68;;;;;;;18.87;50.26;101511.20;1518111;93;21079;-75
2021/10/05 10:00:23;;;;;;;70.37;12.73;;;;;;;18.99;47.91;101515.69;1517843;94;21173;-74
2021/10/05 10:02:50;;;;;;;73.72;12.50;;;;;;;19.00;45.72;101514.66;1496880;94;21132;-78
2021/10/05 10:05:21;;;;;;;91.95;14.78;;;;;;;18.81;44.84;101520.16;1517707;95;21130;-77
2021/10/05 10:07:50;;;;;;;46.37;9.88;;;;;;;18.64;45.77;101514.53;1496156;96;21683;-75
2021/10/05 10:10:20;;;;;;;41.65;10.60;;;;;;;18.66;47.14;101515.19;1553953;90;21146;-73
2021/10/05 10:13:00;;;;;;;29.92;9.20;;;;;;;18.78;47.26;101510.41;1536307;93;21103;-74
2021/10/05 10:15:34;;;;;;;19.92;5.45;;;;;;;18.94;49.23;101504.44;1448802;98;21075;-75
2021/10/05 10:18:11;;;;;;;76.65;17.15;;;;;;;19.13;48.18;101512.06;1433217;100;21133;-75
2021/10/05 10:20:40;;;;;;;56.83;13.32;;;;;;;19.31;47.45;101513.02;1433154;100;21164;-75
2021/10/05 10:23:24;;;;;;;51.53;10.53;;;;;;;19.46;45.89;101515.73;1433660;100;21141;-74
2021/10/05 10:26:04;;;;;;;44.67;9.03;;;;;;;19.51;44.37;101502.79;1429906;100;21094;-72
2021/10/05 10:28:38;;;;;;;40.33;10.68;;;;;;;19.03;42.10;101501.08;1433290;100;21182;-74
2021/10/05 10:31:15;;;;;;;53.30;22.73;;;;;;;18.54;44.38;101508.82;1433702;100;21055;-75
2021/10/05 10:33:52;;;;;;;95.75;17.62;;;;;;;18.23;45.93;101507.59;1468694;97;21130;-77
2021/10/05 10:36:40;;;;;;;41.33;8.28;;;;;;;18.19;49.05;101512.59;1483000;97;21117;-74
2021/10/05 10:39:17;;;;;;;19.00;5.28;;;;;;;18.25;49.80;101509.62;1494314;93;21100;-77
2021/10/05 10:41:56;;;;;;;13.75;5.15;;;;;;;18.26;49.07;101499.54;1507986;93;21122;-77
2021/10/05 10:44:28;;;;;;;22.17;5.47;;;;;;;18.14;50.10;101504.60;1496677;96;21683;-77
2021/10/05 10:47:14;;;;;;;20.33;5.07;;;;;;;18.05;52.11;101507.09;1528131;94;21584;-75
2021/10/05 10:49:43;;;;;;;47.17;9.45;;;;;;;18.12;54.96;101491.09;1507295;95;21567;-76
2021/10/05 10:52:10;;;;;;;41.77;8.13;;;;;;;18.46;51.95;101481.51;1448732;97;21212;-76
2021/10/05 10:54:38;;;;;;;146.55;19.48;;;;;;;18.74;50.96;101498.67;1450469;98;21221;-76
2021/10/05 10:57:08;;;;;;;38.02;7.53;;;;;;;18.90;48.52;101493.01;1450437;99;21164;-78
2021/10/05 10:59:36;;;;;;;36.38;8.00;;;;;;;18.91;47.96;101489.24;1450526;98;21113;-75
2021/10/05 11:02:06;;;;;;;86.02;13.65;;;;;;;18.91;48.22;101490.61;1450523;98;21121;-74
2021/10/05 11:04:35;;;;;;;52.80;10.23;;;;;;;18.90;47.46;101484.79;1450539;99;21162;-76
2021/10/05 11:07:02;;;;;;;15.75;4.90;;;;;;;18.67;45.79;101490.34;1427470;99;21094;-77
2021/10/05 11:09:31;;;;;;;18.37;7.10;;;;;;;18.59;48.05;101498.16;1459801;98;21583;-74
2021/10/05 11:11:58;;;;;;;33.15;8.58;;;;;;;18.68;48.14;101502.15;1480135;94;21157;-76
2021/10/05 11:14:39;;;;;;;15.83;4.78;;;;;;;18.59;49.13;101502.75;1479657;96;21193;-76